sensor_id;sensor_type;location;lat;lon;timestamp;P1;durP1;ratioP1;P2;durP2;ratioP2
19798;SDS011;10059;59.850;10.454;2023-04-15T00:01:17;0.30;;;0.30;;
19798;SDS011;10059;59.850;10.454;2023-04-15T00:03:44;0.40;;;0.40;;
19798;SDS011;10059;59.850;10.454;2023-04-15T00:06:11;0.40;;;0.40;;
19798;SDS011;10059;59.850;10.454;2023-04-15T00:08:40;0.30;;;0.30;;
19798;SDS011;10059;59.850;10.454;2023-04-15T00:11:07;0.40;;;0.33;;
19798;SDS011;10059;59.850;10.454;2023-04-15T00:13:34;0.50;;;0.50;;
19798;SDS011;10059;59.850;10.454;2023-04-15T00:16:01;0.40;;;0.40;;
19798;SDS011;10059;59.850;10.454;2023-04-15T00:18:28;0.50;;;0.40;;
19798;SDS011;10059;59.850;10.454;2023-04-15T00:20:55;0.40;;;0.40;;
19798;SDS011;10059;59.850;10.454;2023-04-15T00:23:22;0.60;;;0.40;;
19798;SDS011;10059;59.850;10.454;2023-04-15T00:25:51;0.30;;;0.30;;
19798;SDS011;10059;59.850;10.454;2023-04-15T00:28:18;0.30;;;0.30;;
19798;SDS011;10059;59.850;10.454;2023-04-15T00:30:45;0.50;;;0.40;;
19798;SDS011;10059;59.850;10.454;2023-04-15T00:33:12;0.40;;;0.40;;
19798;SDS011;10059;59.850;10.454;2023-04-15T00:35:40;0.40;;;0.40;;
19798;SDS011;10059;59.850;10.454;2023-04-15T00:38:07;0.67;;;0.40;;
19798;SDS011;10059;59.850;10.454;2023-04-15T00:40:34;0.33;;;0.33;;
19798;SDS011;10059;59.850;10.454;2023-04-15T00:43:02;0.40;;;0.40;;
19798;SDS011;10059;59.850;10.454;2023-04-15T00:45:29;0.30;;;0.30;;
19798;SDS011;10059;59.850;10.454;2023-04-15T00:47:57;0.47;;;0.47;;
19798;SDS011;10059;59.850;10.454;2023-04-15T00:50:24;0.30;;;0.30;;
19798;SDS011;10059;59.850;10.454;2023-04-15T00:52:51;0.40;;;0.40;;
19798;SDS011;10059;59.850;10.454;2023-04-15T00:55:18;0.70;;;0.40;;
19798;SDS011;10059;59.850;10.454;2023-04-15T00:57:45;0.40;;;0.40;;
19798;SDS011;10059;59.850;10.454;2023-04-15T01:00:13;0.40;;;0.40;;
19798;SDS011;10059;59.850;10.454;2023-04-15T01:02:40;0.37;;;0.37;;
19798;SDS011;10059;59.850;10.454;2023-04-15T01:05:07;0.40;;;0.40;;
19798;SDS011;10059;59.850;10.454;2023-04-15T01:07:34;0.37;;;0.37;;
19798;SDS011;10059;59.850;10.454;2023-04-15T01:10:01;0.40;;;0.40;;
19798;SDS011;10059;59.850;10.454;2023-04-15T01:12:28;0.40;;;0.40;;
19798;SDS011;10059;59.850;10.454;2023-04-15T01:14:58;0.43;;;0.43;;
19798;SDS011;10059;59.850;10.454;2023-04-15T01:17:27;0.43;;;0.43;;
19798;SDS011;10059;59.850;10.454;2023-04-15T01:19:54;0.90;;;0.47;;
19798;SDS011;10059;59.850;10.454;2023-04-15T01:24:52;0.40;;;0.40;;
19798;SDS011;10059;59.850;10.454;2023-04-15T01:27:23;0.73;;;0.40;;
19798;SDS011;10059;59.850;10.454;2023-04-15T01:29:50;0.40;;;0.37;;
19798;SDS011;10059;59.850;10.454;2023-04-15T01:32:17;0.60;;;0.43;;
19798;SDS011;10059;59.850;10.454;2023-04-15T01:34:44;0.50;;;0.50;;
19798;SDS011;10059;59.850;10.454;2023-04-15T01:37:10;0.37;;;0.37;;
19798;SDS011;10059;59.850;10.454;2023-04-15T01:39:37;0.53;;;0.50;;
19798;SDS011;10059;59.850;10.454;2023-04-15T01:42:04;0.50;;;0.50;;
19798;SDS011;10059;59.850;10.454;2023-04-15T01:44:33;0.63;;;0.60;;
19798;SDS011;10059;59.850;10.454;2023-04-15T01:46:59;0.60;;;0.60;;
19798;SDS011;10059;59.850;10.454;2023-04-15T01:49:26;0.53;;;0.53;;
19798;SDS011;10059;59.850;10.454;2023-04-15T01:51:53;0.50;;;0.50;;
19798;SDS011;10059;59.850;10.454;2023-04-15T01:54:20;0.53;;;0.53;;
19798;SDS011;10059;59.850;10.454;2023-04-15T01:56:46;0.50;;;0.50;;
19798;SDS011;10059;59.850;10.454;2023-04-15T01:59:13;0.50;;;0.50;;
19798;SDS011;10059;59.850;10.454;2023-04-15T02:01:42;0.50;;;0.50;;
19798;SDS011;10059;59.850;10.454;2023-04-15T02:04:09;0.60;;;0.60;;
19798;SDS011;10059;59.850;10.454;2023-04-15T02:06:40;0.73;;;0.57;;
19798;SDS011;10059;59.850;10.454;2023-04-15T02:09:07;1.17;;;0.60;;
19798;SDS011;10059;59.850;10.454;2023-04-15T02:11:34;1.17;;;0.60;;
19798;SDS011;10059;59.850;10.454;2023-04-15T02:14:01;1.33;;;0.63;;
19798;SDS011;10059;59.850;10.454;2023-04-15T02:16:29;0.70;;;0.70;;
19798;SDS011;10059;59.850;10.454;2023-04-15T02:18:58;0.60;;;0.50;;
19798;SDS011;10059;59.850;10.454;2023-04-15T02:21:25;0.60;;;0.60;;
19798;SDS011;10059;59.850;10.454;2023-04-15T02:23:52;0.70;;;0.70;;
19798;SDS011;10059;59.850;10.454;2023-04-15T02:26:19;0.60;;;0.50;;
19798;SDS011;10059;59.850;10.454;2023-04-15T02:28:46;0.83;;;0.60;;
19798;SDS011;10059;59.850;10.454;2023-04-15T02:31:15;0.60;;;0.60;;
19798;SDS011;10059;59.850;10.454;2023-04-15T02:33:42;0.73;;;0.70;;
19798;SDS011;10059;59.850;10.454;2023-04-15T02:36:10;0.73;;;0.70;;
19798;SDS011;10059;59.850;10.454;2023-04-15T02:38:37;1.30;;;0.80;;
19798;SDS011;10059;59.850;10.454;2023-04-15T02:41:06;0.80;;;0.80;;
19798;SDS011;10059;59.850;10.454;2023-04-15T02:43:33;1.23;;;0.90;;
19798;SDS011;10059;59.850;10.454;2023-04-15T02:46:00;1.10;;;0.90;;
19798;SDS011;10059;59.850;10.454;2023-04-15T02:48:27;2.10;;;0.90;;
19798;SDS011;10059;59.850;10.454;2023-04-15T02:53:37;1.30;;;1.17;;
19798;SDS011;10059;59.850;10.454;2023-04-15T02:56:05;1.40;;;1.20;;
19798;SDS011;10059;59.850;10.454;2023-04-15T02:58:33;1.10;;;1.00;;
19798;SDS011;10059;59.850;10.454;2023-04-15T03:01:00;1.27;;;1.10;;
19798;SDS011;10059;59.850;10.454;2023-04-15T03:03:27;1.50;;;1.13;;
19798;SDS011;10059;59.850;10.454;2023-04-15T03:05:54;1.20;;;1.10;;
19798;SDS011;10059;59.850;10.454;2023-04-15T03:08:23;1.10;;;1.00;;
19798;SDS011;10059;59.850;10.454;2023-04-15T03:10:50;1.63;;;1.30;;
19798;SDS011;10059;59.850;10.454;2023-04-15T03:13:17;1.20;;;1.10;;
19798;SDS011;10059;59.850;10.454;2023-04-15T03:15:45;2.27;;;1.30;;
19798;SDS011;10059;59.850;10.454;2023-04-15T03:18:12;1.30;;;1.20;;
19798;SDS011;10059;59.850;10.454;2023-04-15T03:20:39;1.27;;;1.00;;
19798;SDS011;10059;59.850;10.454;2023-04-15T03:23:06;1.30;;;1.20;;
19798;SDS011;10059;59.850;10.454;2023-04-15T03:25:34;1.67;;;1.40;;
19798;SDS011;10059;59.850;10.454;2023-04-15T03:28:02;1.50;;;1.20;;
19798;SDS011;10059;59.850;10.454;2023-04-15T03:30:30;1.27;;;1.17;;
19798;SDS011;10059;59.850;10.454;2023-04-15T03:32:57;1.70;;;1.40;;
19798;SDS011;10059;59.850;10.454;2023-04-15T03:35:23;1.80;;;1.60;;
19798;SDS011;10059;59.850;10.454;2023-04-15T03:37:50;1.53;;;1.30;;
19798;SDS011;10059;59.850;10.454;2023-04-15T03:40:17;1.93;;;1.30;;
19798;SDS011;10059;59.850;10.454;2023-04-15T03:42:47;2.27;;;1.50;;
19798;SDS011;10059;59.850;10.454;2023-04-15T03:45:14;2.13;;;1.23;;
19798;SDS011;10059;59.850;10.454;2023-04-15T03:47:41;1.83;;;1.50;;
19798;SDS011;10059;59.850;10.454;2023-04-15T03:50:07;2.27;;;1.40;;
19798;SDS011;10059;59.850;10.454;2023-04-15T03:52:35;1.80;;;1.33;;
19798;SDS011;10059;59.850;10.454;2023-04-15T03:55:02;2.07;;;1.70;;
19798;SDS011;10059;59.850;10.454;2023-04-15T03:57:29;2.57;;;1.60;;
19798;SDS011;10059;59.850;10.454;2023-04-15T03:59:57;3.00;;;1.60;;
19798;SDS011;10059;59.850;10.454;2023-04-15T04:02:24;2.30;;;1.70;;
19798;SDS011;10059;59.850;10.454;2023-04-15T04:04:52;2.23;;;1.60;;
19798;SDS011;10059;59.850;10.454;2023-04-15T04:07:18;1.80;;;1.50;;
19798;SDS011;10059;59.850;10.454;2023-04-15T04:09:45;1.60;;;1.43;;
19798;SDS011;10059;59.850;10.454;2023-04-15T04:12:12;1.93;;;1.40;;
19798;SDS011;10059;59.850;10.454;2023-04-15T04:14:39;1.60;;;1.40;;
19798;SDS011;10059;59.850;10.454;2023-04-15T04:17:07;1.63;;;1.40;;
19798;SDS011;10059;59.850;10.454;2023-04-15T04:19:34;1.70;;;1.40;;
19798;SDS011;10059;59.850;10.454;2023-04-15T04:22:01;2.07;;;1.43;;
19798;SDS011;10059;59.850;10.454;2023-04-15T04:24:28;2.17;;;1.40;;
19798;SDS011;10059;59.850;10.454;2023-04-15T04:26:55;1.67;;;1.50;;
19798;SDS011;10059;59.850;10.454;2023-04-15T04:29:22;1.67;;;1.50;;
19798;SDS011;10059;59.850;10.454;2023-04-15T04:31:49;2.47;;;1.80;;
19798;SDS011;10059;59.850;10.454;2023-04-15T04:34:17;2.17;;;1.60;;
19798;SDS011;10059;59.850;10.454;2023-04-15T04:36:44;2.20;;;1.70;;
19798;SDS011;10059;59.850;10.454;2023-04-15T04:39:11;2.30;;;1.57;;
19798;SDS011;10059;59.850;10.454;2023-04-15T04:41:38;2.17;;;1.70;;
19798;SDS011;10059;59.850;10.454;2023-04-15T04:44:05;2.37;;;1.60;;
19798;SDS011;10059;59.850;10.454;2023-04-15T04:46:31;2.33;;;1.70;;
19798;SDS011;10059;59.850;10.454;2023-04-15T04:48:58;2.00;;;1.50;;
19798;SDS011;10059;59.850;10.454;2023-04-15T04:51:26;2.17;;;1.80;;
19798;SDS011;10059;59.850;10.454;2023-04-15T04:53:53;2.63;;;1.83;;
19798;SDS011;10059;59.850;10.454;2023-04-15T04:56:20;2.80;;;2.10;;
19798;SDS011;10059;59.850;10.454;2023-04-15T04:58:47;2.83;;;1.90;;
19798;SDS011;10059;59.850;10.454;2023-04-15T05:01:14;2.97;;;1.90;;
19798;SDS011;10059;59.850;10.454;2023-04-15T05:03:41;2.50;;;2.00;;
19798;SDS011;10059;59.850;10.454;2023-04-15T05:06:08;2.50;;;1.80;;
19798;SDS011;10059;59.850;10.454;2023-04-15T05:08:36;1.80;;;1.60;;
19798;SDS011;10059;59.850;10.454;2023-04-15T05:11:04;2.50;;;1.87;;
19798;SDS011;10059;59.850;10.454;2023-04-15T05:13:31;1.90;;;1.70;;
19798;SDS011;10059;59.850;10.454;2023-04-15T05:15:58;2.70;;;2.10;;
19798;SDS011;10059;59.850;10.454;2023-04-15T05:18:25;3.03;;;2.30;;
19798;SDS011;10059;59.850;10.454;2023-04-15T05:20:52;2.67;;;1.90;;
19798;SDS011;10059;59.850;10.454;2023-04-15T05:23:19;2.50;;;1.97;;
19798;SDS011;10059;59.850;10.454;2023-04-15T05:25:47;3.07;;;2.00;;
19798;SDS011;10059;59.850;10.454;2023-04-15T05:28:13;4.80;;;2.10;;
19798;SDS011;10059;59.850;10.454;2023-04-15T05:30:41;3.97;;;2.10;;
19798;SDS011;10059;59.850;10.454;2023-04-15T05:33:07;3.67;;;2.23;;
19798;SDS011;10059;59.850;10.454;2023-04-15T05:35:34;2.80;;;2.30;;
19798;SDS011;10059;59.850;10.454;2023-04-15T05:38:01;2.60;;;2.30;;
19798;SDS011;10059;59.850;10.454;2023-04-15T05:40:29;2.20;;;2.00;;
19798;SDS011;10059;59.850;10.454;2023-04-15T05:42:57;3.23;;;2.20;;
19798;SDS011;10059;59.850;10.454;2023-04-15T05:45:24;2.90;;;2.10;;
19798;SDS011;10059;59.850;10.454;2023-04-15T05:47:51;3.33;;;2.10;;
19798;SDS011;10059;59.850;10.454;2023-04-15T05:50:18;2.70;;;2.30;;
19798;SDS011;10059;59.850;10.454;2023-04-15T05:52:45;2.93;;;2.23;;
19798;SDS011;10059;59.850;10.454;2023-04-15T05:55:12;4.67;;;2.43;;
19798;SDS011;10059;59.850;10.454;2023-04-15T05:57:39;3.53;;;2.40;;
19798;SDS011;10059;59.850;10.454;2023-04-15T06:00:08;3.37;;;2.70;;
19798;SDS011;10059;59.850;10.454;2023-04-15T06:02:35;3.53;;;2.47;;
19798;SDS011;10059;59.850;10.454;2023-04-15T06:05:02;3.87;;;2.67;;
19798;SDS011;10059;59.850;10.454;2023-04-15T06:07:33;4.50;;;3.03;;
19798;SDS011;10059;59.850;10.454;2023-04-15T06:10:00;4.20;;;2.80;;
19798;SDS011;10059;59.850;10.454;2023-04-15T06:12:27;4.40;;;2.83;;
19798;SDS011;10059;59.850;10.454;2023-04-15T06:14:54;3.57;;;2.77;;
19798;SDS011;10059;59.850;10.454;2023-04-15T06:17:23;4.07;;;3.00;;
19798;SDS011;10059;59.850;10.454;2023-04-15T06:19:49;4.57;;;3.13;;
19798;SDS011;10059;59.850;10.454;2023-04-15T06:22:19;5.33;;;2.73;;
19798;SDS011;10059;59.850;10.454;2023-04-15T06:24:46;4.47;;;2.80;;
19798;SDS011;10059;59.850;10.454;2023-04-15T06:27:14;3.47;;;2.80;;
19798;SDS011;10059;59.850;10.454;2023-04-15T06:29:41;5.40;;;3.33;;
19798;SDS011;10059;59.850;10.454;2023-04-15T06:32:08;6.43;;;3.90;;
19798;SDS011;10059;59.850;10.454;2023-04-15T06:34:37;4.90;;;3.43;;
19798;SDS011;10059;59.850;10.454;2023-04-15T06:37:04;6.53;;;3.53;;
19798;SDS011;10059;59.850;10.454;2023-04-15T06:39:31;6.10;;;3.63;;
19798;SDS011;10059;59.850;10.454;2023-04-15T06:41:57;6.87;;;3.57;;
19798;SDS011;10059;59.850;10.454;2023-04-15T06:44:25;5.53;;;3.70;;
19798;SDS011;10059;59.850;10.454;2023-04-15T06:46:52;5.57;;;3.50;;
19798;SDS011;10059;59.850;10.454;2023-04-15T06:49:19;4.40;;;3.47;;
19798;SDS011;10059;59.850;10.454;2023-04-15T06:51:47;5.70;;;3.73;;
19798;SDS011;10059;59.850;10.454;2023-04-15T06:54:15;5.10;;;3.70;;
19798;SDS011;10059;59.850;10.454;2023-04-15T06:56:42;7.77;;;4.20;;
19798;SDS011;10059;59.850;10.454;2023-04-15T06:59:09;5.83;;;3.73;;
19798;SDS011;10059;59.850;10.454;2023-04-15T07:01:35;5.50;;;3.60;;
19798;SDS011;10059;59.850;10.454;2023-04-15T07:04:03;6.00;;;3.57;;
19798;SDS011;10059;59.850;10.454;2023-04-15T07:06:30;7.60;;;4.10;;
19798;SDS011;10059;59.850;10.454;2023-04-15T07:08:59;5.63;;;3.83;;
19798;SDS011;10059;59.850;10.454;2023-04-15T07:11:27;5.13;;;3.70;;
19798;SDS011;10059;59.850;10.454;2023-04-15T07:13:54;6.43;;;4.20;;
19798;SDS011;10059;59.850;10.454;2023-04-15T07:16:20;6.10;;;4.07;;
19798;SDS011;10059;59.850;10.454;2023-04-15T07:18:47;6.07;;;4.10;;
19798;SDS011;10059;59.850;10.454;2023-04-15T07:21:14;6.60;;;4.33;;
19798;SDS011;10059;59.850;10.454;2023-04-15T07:23:41;7.37;;;3.80;;
19798;SDS011;10059;59.850;10.454;2023-04-15T07:26:10;6.07;;;4.20;;
19798;SDS011;10059;59.850;10.454;2023-04-15T07:28:37;6.63;;;4.47;;
19798;SDS011;10059;59.850;10.454;2023-04-15T07:31:04;8.10;;;4.77;;
19798;SDS011;10059;59.850;10.454;2023-04-15T07:33:31;9.73;;;5.20;;
19798;SDS011;10059;59.850;10.454;2023-04-15T07:35:57;8.57;;;5.13;;
19798;SDS011;10059;59.850;10.454;2023-04-15T07:38:24;8.03;;;4.70;;
19798;SDS011;10059;59.850;10.454;2023-04-15T07:40:51;8.00;;;5.13;;
19798;SDS011;10059;59.850;10.454;2023-04-15T07:43:19;10.30;;;7.40;;
19798;SDS011;10059;59.850;10.454;2023-04-15T07:45:46;6.53;;;4.60;;
19798;SDS011;10059;59.850;10.454;2023-04-15T07:48:13;6.80;;;4.90;;
19798;SDS011;10059;59.850;10.454;2023-04-15T07:50:41;7.40;;;5.20;;
19798;SDS011;10059;59.850;10.454;2023-04-15T07:53:08;7.67;;;5.43;;
19798;SDS011;10059;59.850;10.454;2023-04-15T07:55:34;8.23;;;5.43;;
19798;SDS011;10059;59.850;10.454;2023-04-15T07:58:01;8.43;;;5.50;;
19798;SDS011;10059;59.850;10.454;2023-04-15T08:00:29;8.30;;;5.47;;
19798;SDS011;10059;59.850;10.454;2023-04-15T08:02:56;8.83;;;5.20;;
19798;SDS011;10059;59.850;10.454;2023-04-15T08:05:23;7.50;;;5.37;;
19798;SDS011;10059;59.850;10.454;2023-04-15T08:07:50;8.10;;;5.53;;
19798;SDS011;10059;59.850;10.454;2023-04-15T08:10:17;6.47;;;4.80;;
19798;SDS011;10059;59.850;10.454;2023-04-15T08:12:44;8.10;;;4.30;;
19798;SDS011;10059;59.850;10.454;2023-04-15T08:15:13;7.87;;;5.57;;
19798;SDS011;10059;59.850;10.454;2023-04-15T08:17:42;11.17;;;6.37;;
19798;SDS011;10059;59.850;10.454;2023-04-15T08:20:09;7.70;;;5.20;;
19798;SDS011;10059;59.850;10.454;2023-04-15T08:22:37;9.03;;;5.23;;
19798;SDS011;10059;59.850;10.454;2023-04-15T08:25:05;9.73;;;5.90;;
19798;SDS011;10059;59.850;10.454;2023-04-15T08:27:33;8.43;;;5.10;;
19798;SDS011;10059;59.850;10.454;2023-04-15T08:30:00;8.77;;;5.27;;
19798;SDS011;10059;59.850;10.454;2023-04-15T08:32:27;9.57;;;5.37;;
19798;SDS011;10059;59.850;10.454;2023-04-15T08:34:55;6.23;;;4.47;;
19798;SDS011;10059;59.850;10.454;2023-04-15T08:37:22;5.93;;;3.97;;
19798;SDS011;10059;59.850;10.454;2023-04-15T08:39:48;6.60;;;4.33;;
19798;SDS011;10059;59.850;10.454;2023-04-15T08:42:16;6.20;;;3.90;;
19798;SDS011;10059;59.850;10.454;2023-04-15T08:44:44;9.23;;;6.20;;
19798;SDS011;10059;59.850;10.454;2023-04-15T08:47:12;5.53;;;3.83;;
19798;SDS011;10059;59.850;10.454;2023-04-15T08:49:39;7.63;;;4.30;;
19798;SDS011;10059;59.850;10.454;2023-04-15T08:52:09;5.60;;;3.90;;
19798;SDS011;10059;59.850;10.454;2023-04-15T08:54:36;9.97;;;5.87;;
19798;SDS011;10059;59.850;10.454;2023-04-15T08:57:03;5.53;;;3.97;;
19798;SDS011;10059;59.850;10.454;2023-04-15T08:59:32;5.67;;;3.80;;
19798;SDS011;10059;59.850;10.454;2023-04-15T09:01:59;7.70;;;5.03;;
19798;SDS011;10059;59.850;10.454;2023-04-15T09:04:27;6.57;;;4.13;;
19798;SDS011;10059;59.850;10.454;2023-04-15T09:06:54;6.23;;;4.20;;
19798;SDS011;10059;59.850;10.454;2023-04-15T09:09:22;6.80;;;4.27;;
19798;SDS011;10059;59.850;10.454;2023-04-15T09:11:49;6.73;;;4.33;;
19798;SDS011;10059;59.850;10.454;2023-04-15T09:14:16;4.53;;;3.53;;
19798;SDS011;10059;59.850;10.454;2023-04-15T09:16:54;5.47;;;4.83;;
19798;SDS011;10059;59.850;10.454;2023-04-15T09:19:22;4.00;;;2.87;;
19798;SDS011;10059;59.850;10.454;2023-04-15T09:21:50;5.07;;;3.53;;
19798;SDS011;10059;59.850;10.454;2023-04-15T09:24:18;6.03;;;4.40;;
19798;SDS011;10059;59.850;10.454;2023-04-15T09:26:46;6.40;;;4.13;;
19798;SDS011;10059;59.850;10.454;2023-04-15T09:29:13;6.47;;;3.90;;
19798;SDS011;10059;59.850;10.454;2023-04-15T09:31:40;5.97;;;3.33;;
19798;SDS011;10059;59.850;10.454;2023-04-15T09:34:07;4.97;;;3.70;;
19798;SDS011;10059;59.850;10.454;2023-04-15T09:36:39;6.00;;;3.93;;
19798;SDS011;10059;59.850;10.454;2023-04-15T09:39:18;9.97;;;5.93;;
19798;SDS011;10059;59.850;10.454;2023-04-15T09:41:46;7.40;;;4.97;;
19798;SDS011;10059;59.850;10.454;2023-04-15T09:44:28;6.20;;;5.00;;
19798;SDS011;10059;59.850;10.454;2023-04-15T09:46:55;5.60;;;4.07;;
19798;SDS011;10059;59.850;10.454;2023-04-15T09:49:22;11.43;;;7.17;;
19798;SDS011;10059;59.850;10.454;2023-04-15T09:51:49;42.50;;;18.43;;
19798;SDS011;10059;59.850;10.454;2023-04-15T09:54:17;12.97;;;7.90;;
19798;SDS011;10059;59.850;10.454;2023-04-15T09:56:46;15.93;;;9.77;;
19798;SDS011;10059;59.850;10.454;2023-04-15T09:59:13;12.43;;;7.43;;
19798;SDS011;10059;59.850;10.454;2023-04-15T10:01:40;14.53;;;8.90;;
19798;SDS011;10059;59.850;10.454;2023-04-15T10:04:08;11.43;;;6.80;;
19798;SDS011;10059;59.850;10.454;2023-04-15T10:06:35;12.20;;;9.10;;
19798;SDS011;10059;59.850;10.454;2023-04-15T10:09:03;4.73;;;3.37;;
19798;SDS011;10059;59.850;10.454;2023-04-15T10:11:31;6.03;;;4.53;;
19798;SDS011;10059;59.850;10.454;2023-04-15T10:14:01;6.67;;;4.27;;
19798;SDS011;10059;59.850;10.454;2023-04-15T10:16:28;8.00;;;5.43;;
19798;SDS011;10059;59.850;10.454;2023-04-15T10:19:00;7.10;;;5.70;;
19798;SDS011;10059;59.850;10.454;2023-04-15T10:21:29;7.27;;;4.17;;
19798;SDS011;10059;59.850;10.454;2023-04-15T10:23:56;5.50;;;3.80;;
19798;SDS011;10059;59.850;10.454;2023-04-15T10:26:23;6.10;;;4.30;;
19798;SDS011;10059;59.850;10.454;2023-04-15T10:28:51;5.57;;;3.70;;
19798;SDS011;10059;59.850;10.454;2023-04-15T10:31:20;4.07;;;3.20;;
19798;SDS011;10059;59.850;10.454;2023-04-15T10:33:47;5.17;;;3.90;;
19798;SDS011;10059;59.850;10.454;2023-04-15T10:36:15;6.13;;;4.20;;
19798;SDS011;10059;59.850;10.454;2023-04-15T10:38:44;6.00;;;3.97;;
19798;SDS011;10059;59.850;10.454;2023-04-15T10:41:11;4.50;;;3.40;;
19798;SDS011;10059;59.850;10.454;2023-04-15T10:43:44;7.23;;;3.50;;
19798;SDS011;10059;59.850;10.454;2023-04-15T10:46:12;3.33;;;2.53;;
19798;SDS011;10059;59.850;10.454;2023-04-15T10:48:47;3.60;;;2.80;;
19798;SDS011;10059;59.850;10.454;2023-04-15T10:51:15;4.53;;;3.23;;
19798;SDS011;10059;59.850;10.454;2023-04-15T10:53:43;3.37;;;2.87;;
19798;SDS011;10059;59.850;10.454;2023-04-15T10:56:09;3.83;;;2.67;;
19798;SDS011;10059;59.850;10.454;2023-04-15T10:58:40;11.97;;;6.40;;
19798;SDS011;10059;59.850;10.454;2023-04-15T11:01:07;8.63;;;5.30;;
19798;SDS011;10059;59.850;10.454;2023-04-15T11:03:35;5.77;;;3.77;;
19798;SDS011;10059;59.850;10.454;2023-04-15T11:06:05;10.47;;;6.20;;
19798;SDS011;10059;59.850;10.454;2023-04-15T11:11:23;5.57;;;3.70;;
19798;SDS011;10059;59.850;10.454;2023-04-15T11:14:04;6.13;;;3.33;;
19798;SDS011;10059;59.850;10.454;2023-04-15T11:16:41;4.00;;;3.23;;
19798;SDS011;10059;59.850;10.454;2023-04-15T11:19:08;3.97;;;2.80;;
19798;SDS011;10059;59.850;10.454;2023-04-15T11:21:37;5.23;;;3.40;;
19798;SDS011;10059;59.850;10.454;2023-04-15T11:24:04;5.27;;;3.70;;
19798;SDS011;10059;59.850;10.454;2023-04-15T11:26:30;6.93;;;4.27;;
19798;SDS011;10059;59.850;10.454;2023-04-15T11:28:57;6.93;;;4.10;;
19798;SDS011;10059;59.850;10.454;2023-04-15T11:31:25;5.97;;;3.73;;
19798;SDS011;10059;59.850;10.454;2023-04-15T11:33:53;9.80;;;5.67;;
19798;SDS011;10059;59.850;10.454;2023-04-15T11:36:23;8.60;;;4.73;;
19798;SDS011;10059;59.850;10.454;2023-04-15T11:38:53;12.53;;;6.77;;
19798;SDS011;10059;59.850;10.454;2023-04-15T11:41:22;11.70;;;6.23;;
19798;SDS011;10059;59.850;10.454;2023-04-15T11:43:49;9.43;;;5.53;;
19798;SDS011;10059;59.850;10.454;2023-04-15T11:46:17;18.63;;;9.37;;
19798;SDS011;10059;59.850;10.454;2023-04-15T11:48:45;8.50;;;5.33;;
19798;SDS011;10059;59.850;10.454;2023-04-15T11:51:12;7.33;;;4.73;;
19798;SDS011;10059;59.850;10.454;2023-04-15T11:53:40;5.87;;;4.30;;
19798;SDS011;10059;59.850;10.454;2023-04-15T11:56:10;6.23;;;3.83;;
19798;SDS011;10059;59.850;10.454;2023-04-15T11:58:42;5.87;;;4.17;;
19798;SDS011;10059;59.850;10.454;2023-04-15T12:01:10;5.73;;;4.00;;
19798;SDS011;10059;59.850;10.454;2023-04-15T12:03:37;6.83;;;4.67;;
19798;SDS011;10059;59.850;10.454;2023-04-15T12:06:09;8.27;;;5.00;;
19798;SDS011;10059;59.850;10.454;2023-04-15T12:08:51;7.03;;;5.10;;
19798;SDS011;10059;59.850;10.454;2023-04-15T12:11:30;8.23;;;5.80;;
19798;SDS011;10059;59.850;10.454;2023-04-15T12:14:01;6.87;;;4.80;;
19798;SDS011;10059;59.850;10.454;2023-04-15T12:16:30;7.50;;;4.67;;
19798;SDS011;10059;59.850;10.454;2023-04-15T12:18:58;6.80;;;4.70;;
19798;SDS011;10059;59.850;10.454;2023-04-15T12:21:32;7.50;;;4.90;;
19798;SDS011;10059;59.850;10.454;2023-04-15T12:24:00;7.73;;;4.67;;
19798;SDS011;10059;59.850;10.454;2023-04-15T12:26:30;7.80;;;5.10;;
19798;SDS011;10059;59.850;10.454;2023-04-15T12:29:00;6.90;;;4.80;;
19798;SDS011;10059;59.850;10.454;2023-04-15T12:31:27;8.43;;;4.87;;
19798;SDS011;10059;59.850;10.454;2023-04-15T12:33:54;9.20;;;5.30;;
19798;SDS011;10059;59.850;10.454;2023-04-15T12:36:22;9.00;;;5.47;;
19798;SDS011;10059;59.850;10.454;2023-04-15T12:38:49;7.70;;;4.63;;
19798;SDS011;10059;59.850;10.454;2023-04-15T12:41:16;12.60;;;6.40;;
19798;SDS011;10059;59.850;10.454;2023-04-15T12:43:44;9.87;;;5.60;;
19798;SDS011;10059;59.850;10.454;2023-04-15T12:46:12;7.87;;;5.27;;
19798;SDS011;10059;59.850;10.454;2023-04-15T12:48:39;8.50;;;4.77;;
19798;SDS011;10059;59.850;10.454;2023-04-15T12:51:06;10.60;;;5.60;;
19798;SDS011;10059;59.850;10.454;2023-04-15T12:53:33;10.97;;;5.83;;
19798;SDS011;10059;59.850;10.454;2023-04-15T12:56:00;7.73;;;5.23;;
19798;SDS011;10059;59.850;10.454;2023-04-15T12:58:27;9.70;;;5.77;;
19798;SDS011;10059;59.850;10.454;2023-04-15T13:00:55;9.03;;;5.10;;
19798;SDS011;10059;59.850;10.454;2023-04-15T13:03:22;6.67;;;4.53;;
19798;SDS011;10059;59.850;10.454;2023-04-15T13:05:49;9.03;;;4.90;;
19798;SDS011;10059;59.850;10.454;2023-04-15T13:08:16;7.30;;;5.00;;
19798;SDS011;10059;59.850;10.454;2023-04-15T13:10:44;8.30;;;4.80;;
19798;SDS011;10059;59.850;10.454;2023-04-15T13:13:11;7.30;;;4.90;;
19798;SDS011;10059;59.850;10.454;2023-04-15T13:15:38;7.70;;;4.93;;
19798;SDS011;10059;59.850;10.454;2023-04-15T13:18:06;7.70;;;4.93;;
19798;SDS011;10059;59.850;10.454;2023-04-15T13:20:33;8.30;;;5.10;;
19798;SDS011;10059;59.850;10.454;2023-04-15T13:23:00;7.63;;;4.63;;
19798;SDS011;10059;59.850;10.454;2023-04-15T13:25:27;7.23;;;4.83;;
19798;SDS011;10059;59.850;10.454;2023-04-15T13:27:54;8.00;;;4.83;;
19798;SDS011;10059;59.850;10.454;2023-04-15T13:30:22;7.97;;;4.60;;
19798;SDS011;10059;59.850;10.454;2023-04-15T13:32:49;6.77;;;4.93;;
19798;SDS011;10059;59.850;10.454;2023-04-15T13:35:17;8.10;;;4.97;;
19798;SDS011;10059;59.850;10.454;2023-04-15T13:37:44;6.43;;;4.80;;
19798;SDS011;10059;59.850;10.454;2023-04-15T13:40:11;8.00;;;5.13;;
19798;SDS011;10059;59.850;10.454;2023-04-15T13:42:38;7.57;;;4.80;;
19798;SDS011;10059;59.850;10.454;2023-04-15T13:45:05;9.77;;;5.50;;
19798;SDS011;10059;59.850;10.454;2023-04-15T13:47:33;8.83;;;4.73;;
19798;SDS011;10059;59.850;10.454;2023-04-15T13:50:00;7.53;;;5.20;;
19798;SDS011;10059;59.850;10.454;2023-04-15T13:52:28;8.17;;;5.20;;
19798;SDS011;10059;59.850;10.454;2023-04-15T13:54:56;7.30;;;4.73;;
19798;SDS011;10059;59.850;10.454;2023-04-15T13:57:23;10.97;;;4.77;;
19798;SDS011;10059;59.850;10.454;2023-04-15T13:59:50;11.73;;;5.00;;
19798;SDS011;10059;59.850;10.454;2023-04-15T14:02:19;7.67;;;4.97;;
19798;SDS011;10059;59.850;10.454;2023-04-15T14:04:47;6.53;;;4.77;;
19798;SDS011;10059;59.850;10.454;2023-04-15T14:07:14;10.03;;;5.10;;
19798;SDS011;10059;59.850;10.454;2023-04-15T14:09:43;8.07;;;4.97;;
19798;SDS011;10059;59.850;10.454;2023-04-15T14:12:10;7.87;;;5.17;;
19798;SDS011;10059;59.850;10.454;2023-04-15T14:14:36;9.00;;;4.80;;
19798;SDS011;10059;59.850;10.454;2023-04-15T14:17:03;11.33;;;5.37;;
19798;SDS011;10059;59.850;10.454;2023-04-15T14:19:30;7.00;;;4.60;;
19798;SDS011;10059;59.850;10.454;2023-04-15T14:21:57;7.27;;;4.77;;
19798;SDS011;10059;59.850;10.454;2023-04-15T14:24:24;9.57;;;5.07;;
19798;SDS011;10059;59.850;10.454;2023-04-15T14:26:53;7.80;;;4.90;;
19798;SDS011;10059;59.850;10.454;2023-04-15T14:29:20;6.43;;;4.53;;
19798;SDS011;10059;59.850;10.454;2023-04-15T14:31:47;7.87;;;4.47;;
19798;SDS011;10059;59.850;10.454;2023-04-15T14:34:15;7.73;;;4.77;;
19798;SDS011;10059;59.850;10.454;2023-04-15T14:36:42;9.80;;;4.70;;
19798;SDS011;10059;59.850;10.454;2023-04-15T14:39:09;10.33;;;5.10;;
19798;SDS011;10059;59.850;10.454;2023-04-15T14:41:36;10.33;;;5.97;;
19798;SDS011;10059;59.850;10.454;2023-04-15T14:44:04;9.77;;;5.07;;